• Join FlightAware (Why Join?)
  • Login
  • US Flag 
05:43PM EDT


 

Airport Tracker/Info


-or-


 

Live Flight TrackerFlight Track Log ✈ SWA182 ✈ 11-Jun-2013 ✈ KLAX - KLAS

Flight Track Log - Related Links

Times and Time Zones

All times are in EDT time to prevent confusion due to time zone crossing. See the SWA182 flight status page for this flight to view local times or setup timezone preferences in your user account.

Time Position Orientation Groundspeed Altitude Reporting Facility
EDT Latitude Longitude Course Direction KTS MPH feet Rate Location/Type
11:34PM 33.9456 -118.4561 274° West 162 186 2,200  Level Los Angeles Center
11:35PM 33.9183 -118.5144 241° Southwest 212 244 5,500 3,480 Climbing Los Angeles Center
11:36PM 33.9064 -118.4564 104° East 232 267 9,400 2,760 Climbing Los Angeles Center
11:37PM 33.9522 -118.3986 46° Northeast 286 329 11,200 2,940 Climbing Los Angeles Center
11:38PM 34.0200 -118.2789 56° Northeast 354 407 15,500 3,960 Climbing Los Angeles Center
11:39PM 34.0822 -118.1717 55° Northeast 383 441 19,400 3,240 Climbing Los Angeles Center
11:40PM 34.1461 -118.0575 56° Northeast 405 466 22,200 3,000 Climbing Los Angeles Center
11:41PM 34.2147 -117.9356 56° Northeast 432 497 25,600 3,180 Climbing Los Angeles Center
11:42PM 34.2811 -117.8164 56° Northeast 430 495 28,800 1,620 Climbing Los Angeles Center
11:43PM 34.3508 -117.6919 56° Northeast 443 510 29,000 60 Climbing Los Angeles Center
11:44PM 34.4311 -117.5450 56° Northeast 491 565 29,000  Level Los Angeles Center
11:45PM 34.5064 -117.4097 56° Northeast 490 564 29,000  Level Los Angeles Center
11:46PM 34.5819 -117.2728 56° Northeast 492 566 29,000  Level Los Angeles Center
11:47PM 34.6567 -117.1369 56° Northeast 488 562 29,000  Level Los Angeles Center
11:48PM 34.7450 -116.9703 57° Northeast 492 566 29,000  Level Los Angeles Center
11:49PM 34.8211 -116.8336 56° Northeast 491 565 29,000  Level Los Angeles Center
11:50PM 34.8953 -116.6956 57° Northeast 491 565 29,000 -720 Level Los Angeles Center
11:51PM 34.9731 -116.5597 55° Northeast 490 564 27,600 -2,040 Descending Los Angeles Center
11:52PM 35.0664 -116.4464 45° Northeast 476 548 24,900 -1,980 Descending Los Angeles Center
11:53PM 35.1536 -116.3356 46° Northeast 462 532 23,600 -1,200 Descending Los Angeles Center
11:54PM 35.2597 -116.2044 45° Northeast 453 521 22,500 -1,020 Descending Los Angeles Center
11:55PM 35.3439 -116.0958 46° Northeast 443 510 21,500 -1,560 Descending Los Angeles Center
11:56PM 35.4267 -115.9903 46° Northeast 435 501 19,400 -2,160 Descending Los Angeles Center
11:57PM 35.5081 -115.8914 45° Northeast 423 487 17,100 -2,220 Descending Los Angeles Center
11:58PM 35.5825 -115.7964 46° Northeast 408 470 14,900 -1,920 Descending Los Angeles Center
11:59PM 35.6550 -115.7050 46° Northeast 392 451 13,200 -1,140 Descending Los Angeles Center
12:00AM 35.7069 -115.6386 46° Northeast 339 390 13,000 -240 Descending Los Angeles Center
12:00AM 35.7300 -115.6100 45° Northeast 363 418 13,000  Level Los Angeles Center
12:01AM 35.7778 -115.5761 30° Northeast 320 368 13,000  Level Los Angeles Center
12:01AM 35.8153 -115.5700 North 321 369 13,000  Level Los Angeles Center
12:02AM 35.8547 -115.5725 357° North 302 348 13,000  Level Los Angeles Center
12:02AM 35.9014 -115.5658 North 311 358 13,000  Level Los Angeles Center
12:03AM 35.9417 -115.5656 360° North 310 357 13,000  Level Los Angeles Center
12:04AM 35.9789 -115.5319 36° Northeast 320 368 13,000 -960 Level Los Angeles Center
12:04AM 36.0028 -115.4686 65° Northeast 324 373 12,000 -1,560 Descending Los Angeles Center
12:05AM 36.0133 -115.4308 71° East 321 369 11,400 -1,260 Descending Los Angeles Center
12:05AM 36.0267 -115.3892 68° East 318 366 11,000 -600 Descending Los Angeles Center
12:06AM 36.0283 -115.3292 88° East 314 361 10,800 -900 Descending Los Angeles Center
12:06AM 36.0244 -115.2783 95° East 301 346 10,100 -1,380 Descending Los Angeles Center
12:07AM 36.0203 -115.2269 96° East 303 349 9,400 -1,320 Descending Los Angeles Center
12:07AM 36.0156 -115.1775 97° East 295 339 8,800 -1,320 Descending Los Angeles Center
12:08AM 36.0119 -115.1086 94° East 294 338 8,100 -600 Descending Los Angeles Center
12:09AM 36.0078 -115.0258 94° East 260 299 7,800 -540 Descending Los Angeles Center
12:09AM 36.0056 -115.0028 97° East 223 257 7,400 -1,140 Descending Los Angeles Center
12:10AM 36.0042 -114.9531 92° East 228 262 6,700 -1,140 Descending Los Angeles Center
12:11AM 36.0403 -114.9158 40° Northeast 219 252 5,500 -960 Descending Los Angeles Center
12:12AM 36.0736 -114.9558 316° Northwest 188 216 4,800 -840 Descending Los Angeles Center
12:13AM 36.0747 -115.0125 271° West 170 196 3,900 -960 Descending Los Angeles Center
12:14AM 36.0747 -115.0678 270° West 166 191 2,900 -840 Descending Los Angeles Center
12:15AM 36.0742 -115.1111 269° West 149 171 2,300 -600 Descending Los Angeles Center
12:17AM 36.0667 -115.1500 270° West  Level FlightAware Approximate